Accueil
METAR-TAF:

METAR-TAF

Aéroports :

Aéroport de La Palma

La Palma, Espagne

latitude: 28-37N, longitude: 017-45W, altitude: 29 m

Observation

Le bulletin a été fait il y a 28 minutes, à 21:30 UTC
Vent 9 kt de nord
Température 19°C
Humidité 64%
Pression 1023 hPa
Visibilité 10 km ou plus
Ciel couvert à une hauteur de 2800 ft

METAR: GCLA 272130Z AUTO 35009KT 9999 OVC028 19/12 Q1023

Heure: 21:58 (21:58 UTC)

Prévision

Le bulletin a été fait il y a 1 heure et 58 minutes, à 20:00 UTC
Prévision valable du 27 à 21 UTC au 28 à 21 UTC
Vent 6 kt de nord/nord-ouest
Visibilité 10 km ou plus
Nuages épars à une hauteur de 2500 ft

TAF: GCLA 272000Z 2721/2821 33006KT 9999 SCT025 TX22/2814Z TN16/2806Z

Observations et prévisions météorologiques de plus de 4000 aéroports (messages METAR et TAF).

Les stations disponibles sont représentées par des disques jaunes et rouges sur la carte.

Passer la souris dessus pour voir le nom de la station.

Cliquer dessus pour voir les observations et prévisions météorologiques.

Pour changer de carte: cliquez sur les boutons verts avec une croix noire pour zoomer, sur le bouton vert avec un tiret pour effectuer un zoom arrière, ou sur les flèches vertes pour les cartes adjacentes.


METAR-TAF: